Terminal Aerodrome Forecast
Issued by NWS

Home | Current Version | Previous Version | Text Only | Print | Product List | Glossary On
Versions: 1 2 3 4 5 6 7 8 9 10 11 12 13 14 15 16 17
000
FTUS41 KPBZ 260500
TAFHLG
TAF
KHLG 260525Z 2606/2706 05003KT P6SM BKN150
     FM261200 01004KT 6SM -SN OVC035
     FM261400 02005KT 2SM -SN BR OVC015
     FM262000 VRB03KT P6SM OVC020=

USA.gov is the U.S. government's official web portal to all federal, state and local government web resources and services.